Time;durP1;ratioP1;P1;durP2;ratioP2;P2;SDS_P1;SDS_P2;PMS_P1;PMS_P2;Temp;Humidity;BMP_temperature;BMP_pressure;BME280_temperature;BME280_humidity;BME280_pressure;Samples;Min_cycle;Max_cycle;Signal;HPM_P1;HPM_P2
2022/01/14 00:00:27;;;;;;;100.72;33.22;;;5.70;99.90;;;;;;6164224;23;20035;-85
2022/01/14 00:02:56;;;;;;;99.07;34.03;;;5.70;99.90;;;;;;6163006;23;20021;-86
2022/01/14 00:05:35;;;;;;;104.03;33.92;;;5.80;99.90;;;;;;6167464;23;20124;-87
2022/01/14 00:08:18;;;;;;;;;;;;;;;;;;;;;
2022/01/14 00:10:49;;;;;;;;;;;5.80;99.90;;;;;;6210342;22;20043;-86
2022/01/14 00:16:11;;;;;;;97.43;31.83;;;5.90;99.90;;;;;;6179141;23;20020;-85
2022/01/14 00:18:37;;;;;;;92.85;32.25;;;5.90;99.90;;;;;;6151264;23;20024;-85
2022/01/14 00:21:25;;;;;;;96.53;32.03;;;5.90;99.90;;;;;;6179670;23;20009;-87
2022/01/14 00:24:05;;;;;;;88.07;32.25;;;5.90;99.90;;;;;;6154309;23;20040;-86
2022/01/14 00:34:40;;;;;;;68.00;26.50;;;6.00;99.90;;;;;;6182849;23;20511;-86
2022/01/14 00:37:09;;;;;;;67.30;26.67;;;6.00;99.90;;;;;;6180470;23;20024;-86
2022/01/14 00:39:44;;;;;;;77.85;26.77;;;6.00;99.90;;;;;;6154909;23;20202;-86
2022/01/14 00:42:14;;;;;;;66.57;27.23;;;6.00;99.90;;;;;;6153922;23;20286;-86
2022/01/14 00:44:43;;;;;;;61.53;26.25;;;6.00;99.90;;;;;;6131040;23;20088;-87
2022/01/14 00:47:12;;;;;;;84.68;28.50;;;6.00;99.90;;;;;;6155234;23;20020;-86
2022/01/14 00:49:41;;;;;;;69.32;28.23;;;6.00;99.90;;;;;;6103536;23;20106;-87
2022/01/14 00:52:09;;;;;;;75.20;27.63;;;6.00;99.90;;;;;;6151178;23;20510;-87
2022/01/14 00:54:35;;;;;;;60.45;25.50;;;6.00;99.90;;;;;;6151978;23;20016;-86
2022/01/14 00:59:36;;;;;;;72.50;28.10;;;6.00;99.90;;;;;;6151354;23;20023;-86
2022/01/14 01:02:03;;;;;;;60.58;26.00;;;6.00;99.90;;;;;;6178410;23;20103;-86
2022/01/14 01:04:38;;;;;;;59.03;24.50;;;6.00;99.90;;;;;;6152122;23;20019;-87
2022/01/14 01:07:09;;;;;;;78.55;27.23;;;6.00;99.90;;;;;;6155485;23;20051;-87
2022/01/14 01:09:45;;;;;;;69.53;26.73;;;6.00;99.90;;;;;;6152016;23;20441;-86
2022/01/14 01:12:16;;;;;;;69.63;26.52;;;6.00;99.90;;;;;;6107762;23;20012;-87
2022/01/14 01:15:02;;;;;;;57.65;24.77;;;6.00;99.90;;;;;;6155361;23;20405;-86
2022/01/14 01:17:31;;;;;;;62.25;26.55;;;6.00;99.90;;;;;;6152001;23;20019;-86
2022/01/14 01:19:56;;;;;;;60.85;25.48;;;6.00;99.90;;;;;;6177081;23;20066;-86
2022/01/14 01:22:22;;;;;;;60.63;27.42;;;5.90;99.90;;;;;;6103558;23;20063;-86
2022/01/14 01:24:54;;;;;;;58.00;26.17;;;6.00;99.90;;;;;;6152258;23;20012;-86
2022/01/14 01:27:22;;;;;;;;;;;5.90;99.90;;;;;;6106197;23;20020;-87
2022/01/14 01:30:01;;;;;;;55.35;24.67;;;5.90;99.90;;;;;;6128445;23;19916;-88
2022/01/14 01:32:27;;;;;;;58.00;27.10;;;5.90;99.90;;;;;;6202319;23;20071;-86
2022/01/14 01:34:59;;;;;;;80.25;29.65;;;5.90;99.90;;;;;;6152926;23;20017;-87
2022/01/14 01:37:24;;;;;;;62.53;28.00;;;6.00;99.90;;;;;;6152114;23;20090;-85
2022/01/14 01:39:50;;;;;;;61.83;27.23;;;6.00;99.90;;;;;;6101315;23;20008;-86
2022/01/14 01:42:23;;;;;;;63.15;28.23;;;6.00;99.90;;;;;;6103815;23;20400;-86
2022/01/14 01:47:51;;;;;;;74.43;27.40;;;5.90;99.90;;;;;;6121033;23;20031;-86
2022/01/14 01:50:26;;;;;;;68.07;27.58;;;6.00;99.90;;;;;;6150898;23;20054;-85
2022/01/14 01:53:00;;;;;;;67.43;27.35;;;6.00;99.90;;;;;;6149282;23;20033;-86
2022/01/14 01:55:27;;;;;;;69.88;29.55;;;6.00;99.90;;;;;;6145049;23;20020;-86
2022/01/14 01:58:05;;;;;;;72.13;28.13;;;6.00;99.90;;;;;;6103116;23;20009;-87
2022/01/14 02:00:31;;;;;;;76.07;30.08;;;6.00;99.90;;;;;;6152503;23;20346;-86
2022/01/14 02:03:14;;;;;;;72.93;27.77;;;5.90;99.90;;;;;;6152274;23;20104;-86
2022/01/14 02:05:47;;;;;;;75.40;26.63;;;5.90;99.90;;;;;;6164024;22;20355;-86
2022/01/14 02:25:11;;;;;;;61.53;26.67;;;5.90;99.90;;;;;;6178904;22;20414;-87
2022/01/14 02:27:39;;;;;;;65.05;27.33;;;5.90;99.90;;;;;;6163133;23;20020;-86
2022/01/14 02:30:06;;;;;;;74.72;26.55;;;5.90;99.90;;;;;;6148688;23;20525;-86
2022/01/14 02:32:57;;;;;;;59.22;26.77;;;5.90;99.90;;;;;;6125788;23;20017;-88
2022/01/14 04:42:52;;;;;;;84.30;34.35;;;6.00;99.90;;;;;;6238677;23;20027;-86
2022/01/14 04:50:23;;;;;;;88.68;33.03;;;5.90;99.90;;;;;;6174488;23;20135;-86
2022/01/14 04:52:49;;;;;;;91.03;33.28;;;5.90;99.90;;;;;;6114621;23;20025;-86
2022/01/14 04:55:25;;;;;;;93.47;35.25;;;5.90;99.90;;;;;;6099233;23;20059;-87
2022/01/14 04:57:59;;;;;;;92.10;35.03;;;5.90;99.90;;;;;;6186430;23;20536;-87
2022/01/14 05:00:28;;;;;;;85.28;33.33;;;5.90;99.90;;;;;;6207773;23;20018;-88
2022/01/14 05:03:17;;;;;;;89.25;35.03;;;5.80;99.90;;;;;;6185120;23;20012;-86
2022/01/14 05:05:46;;;;;;;86.82;35.33;;;5.80;99.90;;;;;;6183693;23;20008;-87
2022/01/14 05:08:23;;;;;;;89.45;36.92;;;5.80;99.90;;;;;;6184721;23;20433;-86
2022/01/14 05:13:18;;;;;;;80.20;34.72;;;5.80;99.90;;;;;;6209853;23;20039;-87
2022/01/14 05:15:44;;;;;;;81.93;35.25;;;5.80;99.90;;;;;;6186055;23;20046;-86
2022/01/14 05:18:10;;;;;;;87.35;34.90;;;5.80;99.90;;;;;;6184126;23;20461;-86
2022/01/14 05:21:02;;;;;;;81.85;34.90;;;5.80;99.90;;;;;;6159660;23;20073;-87
2022/01/14 05:23:31;;;;;;;72.88;33.17;;;5.80;99.90;;;;;;6128334;23;20020;-85
2022/01/14 05:26:19;;;;;;;86.00;35.17;;;5.80;99.90;;;;;;6182845;23;20205;-86
2022/01/14 05:28:49;;;;;;;76.78;34.47;;;5.80;99.90;;;;;;6185474;23;20035;-87
2022/01/14 05:34:07;;;;;;;89.45;34.53;;;5.80;99.90;;;;;;6209303;22;20414;-85
2022/01/14 05:36:36;;;;;;;87.78;34.28;;;5.80;99.90;;;;;;6206877;23;20022;-85
2022/01/14 05:39:11;;;;;;;78.65;35.13;;;5.80;99.90;;;;;;6183114;23;20023;-86
2022/01/14 05:41:40;;;;;;;78.53;34.97;;;5.80;99.90;;;;;;6184137;23;20099;-88
2022/01/14 05:44:15;;;;;;;82.20;33.97;;;5.80;99.90;;;;;;6183040;22;20396;-86
2022/01/14 05:47:02;;;;;;;77.80;33.92;;;5.70;99.90;;;;;;6208369;23;20095;-85
2022/01/14 05:49:35;;;;;;;79.35;33.47;;;5.70;99.90;;;;;;6183466;23;20016;-85
2022/01/14 05:52:25;;;;;;;75.20;34.60;;;5.70;99.90;;;;;;6192538;23;20075;-87
2022/01/14 05:54:58;;;;;;;79.95;33.33;;;5.70;99.90;;;;;;6217249;23;20317;-88
2022/01/14 05:57:25;;;;;;;77.32;33.47;;;5.80;99.90;;;;;;6191461;23;20023;-87
2022/01/14 06:00:03;;;;;;;78.95;33.95;;;5.70;99.90;;;;;;6190778;23;20353;-87
2022/01/14 06:02:38;;;;;;;75.60;33.65;;;5.70;99.90;;;;;;6197271;23;20023;-86
2022/01/14 06:05:04;;;;;;;80.10;33.38;;;5.70;99.90;;;;;;6193631;23;20015;-85
2022/01/14 06:07:44;;;;;;;81.38;34.65;;;5.70;99.90;;;;;;6215316;23;20047;-86
2022/01/14 06:10:32;;;;;;;92.38;34.38;;;5.70;99.90;;;;;;6219596;23;20045;-85
2022/01/14 06:13:44;;;;;;;82.10;34.35;;;5.70;99.90;;;;;;6189299;23;20099;-87
2022/01/14 06:17:14;;;;;;;81.45;34.42;;;5.70;99.90;;;;;;6157805;23;20367;-88
2022/01/14 06:44:37;;;;;;;68.43;32.20;;;5.60;99.90;;;;;;6238250;23;20022;-86
2022/01/14 07:20:22;;;;;;;68.60;31.42;;;5.60;99.90;;;;;;6172570;23;20019;-86
2022/01/14 09:04:39;;;;;;;53.97;22.73;;;6.20;99.90;;;;;;6208411;23;20016;-86
2022/01/14 09:15:27;;;;;;;46.05;20.48;;;6.30;99.90;;;;;;6197185;22;20230;-88
2022/01/14 09:21:30;;;;;;;44.50;19.40;;;6.40;99.90;;;;;;6266150;22;20343;-87
2022/01/14 09:31:20;;;;;;;46.22;18.15;;;6.50;99.90;;;;;;6090282;23;20017;-86
2022/01/14 09:33:52;;;;;;;34.72;17.55;;;6.50;99.90;;;;;;6065107;23;20434;-86
2022/01/14 09:40:28;;;;;;;43.05;17.10;;;6.60;99.90;;;;;;6033753;23;20018;-86
2022/01/14 10:20:11;;;;;;;29.08;12.48;;;7.20;99.90;;;;;;6265245;22;20024;-84
2022/01/14 10:23:19;;;;;;;28.52;12.20;;;7.20;99.90;;;;;;6240203;22;20020;-84
2022/01/14 10:33:34;;;;;;;36.03;11.70;;;7.30;99.90;;;;;;5981063;23;20038;-84
2022/01/14 10:35:59;;;;;;;29.45;10.57;;;7.30;99.90;;;;;;5971266;23;20456;-84
2022/01/14 10:38:36;;;;;;;20.80;10.45;;;7.30;99.90;;;;;;6013025;23;20590;-84
2022/01/14 10:41:08;;;;;;;19.13;10.07;;;7.40;99.90;;;;;;6094837;23;20021;-84
2022/01/14 10:43:38;;;;;;;24.20;9.23;;;7.40;99.90;;;;;;6118105;23;20014;-85
2022/01/14 10:46:09;;;;;;;21.48;9.30;;;7.40;99.90;;;;;;6070471;23;20019;-85
2022/01/14 10:48:46;;;;;;;23.30;10.27;;;7.40;99.90;;;;;;6095218;23;20082;-83
2022/01/14 10:51:16;;;;;;;21.23;9.80;;;7.40;99.90;;;;;;6117215;23;20243;-86
2022/01/14 10:53:55;;;;;;;29.92;10.05;;;7.40;99.90;;;;;;6117266;23;20341;-84
2022/01/14 10:56:41;;;;;;;21.35;8.57;;;7.40;99.90;;;;;;6225128;22;20021;-82
2022/01/14 10:59:07;;;;;;;20.50;7.85;;;7.40;99.90;;;;;;6180172;23;20012;-86
2022/01/14 11:01:36;;;;;;;30.90;8.98;;;7.40;99.90;;;;;;6155879;23;20020;-87
2022/01/14 11:08:27;;;;;;;18.70;7.97;;;7.40;99.90;;;;;;6092664;23;20025;-85
2022/01/14 11:11:38;;;;;;;23.33;7.53;;;7.40;99.90;;;;;;6071977;23;20296;-84
2022/01/14 11:18:24;;;;;;;24.02;8.18;;;7.40;99.90;;;;;;6085253;23;20025;-84
2022/01/14 11:25:19;;;;;;;25.25;8.27;;;7.40;99.90;;;;;;6143473;23;20536;-86
2022/01/14 11:31:43;;;;;;;31.10;7.30;;;7.40;99.90;;;;;;6166223;23;20360;-86
2022/01/14 11:34:35;;;;;;;17.52;6.90;;;7.40;99.90;;;;;;6150113;23;20080;-86
2022/01/14 11:59:53;;;;;;;20.42;7.10;;;7.50;99.90;;;;;;6178454;23;20524;-88
2022/01/14 12:02:41;;;;;;;;;;;7.50;99.90;;;;;;6172292;23;20013;-88
2022/01/14 12:05:54;;;;;;;19.23;7.20;;;7.50;99.90;;;;;;6084201;23;19920;-87
2022/01/14 12:08:32;;;;;;;24.63;6.82;;;7.50;99.90;;;;;;6127040;23;20024;-88
2022/01/14 12:11:20;;;;;;;24.80;7.40;;;7.50;99.90;;;;;;6150313;23;20480;-87
2022/01/14 12:14:02;;;;;;;15.68;6.63;;;7.60;99.90;;;;;;6152418;23;20055;-87
2022/01/14 12:17:11;;;;;;;22.55;7.57;;;7.60;99.90;;;;;;6177315;23;20790;-87
2022/01/14 12:19:39;;;;;;;25.35;7.38;;;7.60;99.90;;;;;;6130859;23;20013;-87
2022/01/14 12:22:39;;;;;;;24.60;7.25;;;7.60;99.90;;;;;;6128970;23;20068;-86
2022/01/14 12:25:38;;;;;;;28.40;7.72;;;7.60;99.90;;;;;;6135849;23;20561;-87
2022/01/14 12:28:23;;;;;;;30.45;7.43;;;7.60;99.90;;;;;;6153360;23;20456;-87
2022/01/14 12:31:03;;;;;;;21.88;7.20;;;7.60;99.90;;;;;;6151710;23;20060;-87
2022/01/14 12:39:26;;;;;;;18.75;6.68;;;7.60;99.90;;;;;;6269992;22;20081;-83
2022/01/14 13:40:19;;;;;;;25.90;6.97;;;7.60;99.90;;;;;;6238388;22;20766;-86
2022/01/14 14:03:57;;;;;;;20.77;5.78;;;7.50;99.90;;;;;;6236688;23;20015;-85
2022/01/14 14:07:11;;;;;;;28.55;6.57;;;7.50;99.90;;;;;;6234927;23;20142;-85
2022/01/14 14:21:33;;;;;;;;;;;;;;;;;;;;;
2022/01/14 14:31:29;;;;;;;;;;;;;;;;;;;;;
2022/01/14 14:56:45;;;;;;;23.55;7.07;;;7.40;99.90;;;;;;6256253;22;20031;-86
2022/01/14 18:40:36;;;;;;;;;;;;;;;;;;;;;
2022/01/14 20:30:02;;;;;;;31.27;11.07;;;7.00;99.90;;;;;;6008503;23;20074;-83
2022/01/14 20:33:39;;;;;;;26.85;10.25;;;6.90;99.90;;;;;;6130314;23;20103;-84
2022/01/14 20:36:04;;;;;;;51.65;11.15;;;6.90;99.90;;;;;;6129771;23;20099;-84
2022/01/14 20:38:53;;;;;;;;;;;;;;;;;;;;;
2022/01/14 20:42:04;;;;;;;26.42;9.23;;;6.90;99.90;;;;;;6112029;23;20048;-83
2022/01/14 20:48:25;;;;;;;24.70;9.55;;;6.90;99.90;;;;;;6122133;23;20073;-84
2022/01/14 20:55:02;;;;;;;23.35;8.82;;;7.00;99.90;;;;;;6107142;23;20025;-84
2022/01/14 21:02:12;;;;;;;24.45;8.20;;;6.90;99.90;;;;;;5884308;24;20401;-84
2022/01/14 21:05:38;;;;;;;;;;;;;;;;;;;;;
2022/01/14 21:12:35;;;;;;;23.40;8.45;;;6.90;99.90;;;;;;5914008;24;20672;-84
2022/01/14 21:16:30;;;;;;;24.35;8.48;;;6.90;99.90;;;;;;5912884;24;20427;-84
2022/01/14 21:20:09;;;;;;;;;;;;;;;;;;;;;
2022/01/14 21:23:22;;;;;;;;;;;;;;;;;;;;;
2022/01/14 21:34:36;;;;;;;40.10;12.57;;;6.90;99.90;;;;;;6057084;23;20259;-86
2022/01/14 22:24:15;;;;;;;;;;;;;;;;;;;;;
2022/01/14 22:27:09;;;;;;;60.35;15.20;;;6.70;99.90;;;;;;6072188;23;20465;-87
2022/01/14 22:39:24;;;;;;;;;;;;;;;;;;;;;
2022/01/14 22:42:27;;;;;;;39.17;12.02;;;6.80;99.90;;;;;;6172251;23;20100;-86
2022/01/14 22:46:07;;;;;;;;;;;;;;;;;;;;;
2022/01/14 23:23:29;;;;;;;40.78;9.90;;;6.70;99.90;;;;;;5833873;24;20026;-85
2022/01/14 23:34:00;;;;;;;;;;;;;;;;;;;;;
2022/01/14 23:37:27;;;;;;;35.10;8.90;;;6.70;99.90;;;;;;5864575;24;20030;-85
2022/01/14 23:40:06;;;;;;;36.05;8.70;;;6.70;99.90;;;;;;6082806;23;20022;-86
2022/01/14 23:49:23;;;;;;;36.75;9.85;;;6.70;99.90;;;;;;6060936;23;20105;-86
2022/01/14 23:52:23;;;;;;;27.42;9.38;;;6.60;99.90;;;;;;6043579;23;20029;-84
2022/01/14 23:55:25;;;;;;;33.42;10.07;;;6.70;99.90;;;;;;6033886;23;20108;-86
